메인 페이지
METAR-TAF:

METAR-TAF

공항 :

호르헤 차베스 국제공항

리마, 페루

위도: 12-00S, 경도: 077-07W, 고도: 12m

현재 날씨관측

예보는 51분 전, 02:00시(UTC)에 발표되었습니다.
8kt
온도 20°C
습도 88%
기압 1014 hPa
시정 10km 이상
고도 1300ft 상공 구름 조금
고도 13000ft 상공 구름 보통

METAR: SPJC 130200Z 17008KT 9999 FEW013 SCT130 20/18 Q1014 NOSIG RMK PP000

시각: 21:51 (02:51 UTC)

예보

예보는 3 시간 51분 전, 23:00시(UTC)에 발표되었습니다.
예보 대상 시간: 13일 00시부터 13일 24시까지 (UTC)
10kt
시정 10km 이상
고도 1200ft 상공 구름 조금
고도 10000ft 상공 구름 많음
13일 0600시부터 (UTC)
5kt
시정 10km 이상
고도 1000ft 상공 구름 조금
고도 2500ft 상공 구름 많음
일시적
13일 11시부터 13일 13시까지 (UTC)
고도 1200ft 상공 구름 많음
13일 1500시부터 (UTC)
8kt
시정 10km 이상
고도 1700ft 상공 구름 보통
고도 13000ft 상공 구름 보통

TAF: SPJC 122300Z 1300/1324 17010KT 9999 FEW012 BKN100 TX25/1319Z TN19/1311Z FM130600 17005KT 9999 FEW010 BKN025 TEMPO 1311/1313 BKN012 FM131500 18008KT 9999 SCT017 SCT130

4,000개 이상의 공항 관측 자료 및 예보 (METAR 및 TAF 보고).

지도상에서 검색 가능한 기상관측소가 노란 점과 빨간 점으로 표시되어 있습니다.

기상관측소 명을 보려면 표시 위로 마우스를 이동하세요.

날씨 관측과 예보를 보려면 클릭하세요.

지도 변경 : 확대하려면 엑스 표시가 있는 녹색 버튼, 축소하려면 빼기 표시가 있는 녹색 버튼, 다음 페이지의 지도를 보려면 녹색 화살표를 클릭하세요.


METAR-TAF: